createdAt,value
2023-02-25T00:00:11.067Z,74.72
2023-02-25T00:02:47.476Z,74.58
2023-02-25T00:05:21.877Z,74.71
2023-02-25T00:07:54.957Z,74.81
2023-02-25T00:10:28.057Z,74.65
2023-02-25T00:13:17.096Z,74.74
2023-02-25T00:15:50.793Z,74.48
2023-02-25T00:18:23.572Z,74.41
2023-02-25T00:20:57.707Z,74.99
2023-02-25T00:23:30.560Z,74.81
2023-02-25T00:26:05.339Z,74.50
2023-02-25T00:28:39.882Z,74.33
2023-02-25T00:31:15.512Z,74.54
2023-02-25T00:33:48.777Z,74.57
2023-02-25T00:36:24.876Z,74.43
2023-02-25T00:38:58.867Z,74.74
2023-02-25T00:41:31.710Z,74.54
2023-02-25T00:44:05.124Z,74.35
2023-02-25T00:46:38.046Z,74.29
2023-02-25T00:49:13.358Z,75.01
2023-02-25T00:51:51.160Z,74.48
2023-02-25T00:54:53.082Z,74.09
2023-02-25T00:57:25.984Z,74.16
2023-02-25T00:59:58.674Z,74.12
2023-02-25T01:02:31.698Z,73.62
2023-02-25T01:05:05.047Z,74.04
2023-02-25T01:07:39.668Z,73.78
2023-02-25T01:10:12.655Z,74.10
2023-02-25T01:12:45.740Z,73.96
2023-02-25T01:15:18.502Z,73.97
2023-02-25T01:17:51.295Z,74.00
2023-02-25T01:20:24.483Z,73.89
2023-02-25T01:22:59.037Z,73.67
2023-02-25T01:25:31.930Z,74.06
2023-02-25T01:28:06.727Z,73.92
2023-02-25T01:30:39.522Z,73.89
2023-02-25T01:33:12.383Z,74.25
2023-02-25T01:35:45.351Z,73.59
2023-02-25T01:38:19.952Z,74.14
2023-02-25T01:40:58.986Z,72.53
2023-02-25T01:43:31.768Z,73.58
2023-02-25T01:46:04.768Z,73.58
2023-02-25T01:48:40.547Z,73.47
2023-02-25T01:51:14.007Z,73.75
2023-02-25T01:53:49.328Z,73.52
2023-02-25T01:56:26.178Z,73.73
2023-02-25T01:59:00.821Z,73.27
2023-02-25T02:01:35.844Z,73.15
2023-02-25T02:04:14.991Z,73.67
2023-02-25T02:06:50.208Z,73.45
2023-02-25T02:09:28.450Z,73.51
2023-02-25T02:12:04.305Z,73.74
2023-02-25T02:14:39.956Z,73.21
2023-02-25T02:17:25.324Z,73.90
2023-02-25T02:20:13.337Z,73.77
2023-02-25T02:22:55.578Z,73.53
2023-02-25T02:26:05.484Z,72.71
2023-02-25T02:29:19.367Z,73.41
2023-02-25T02:32:08.050Z,73.27
2023-02-25T02:34:47.409Z,73.60
2023-02-25T02:37:28.826Z,73.56
2023-02-25T02:40:17.393Z,73.36
2023-02-25T02:43:04.972Z,73.54
2023-02-25T02:45:49.117Z,73.89
2023-02-25T02:48:29.556Z,74.02
2023-02-25T02:51:07.310Z,73.67
2023-02-25T02:53:45.291Z,74.10
2023-02-25T02:56:23.220Z,74.00
2023-02-25T02:59:00.575Z,74.11
2023-02-25T03:01:38.386Z,74.09
2023-02-25T03:04:20.599Z,73.98
2023-02-25T03:06:57.074Z,73.46
2023-02-25T03:09:34.714Z,73.66
2023-02-25T03:12:07.995Z,73.94
2023-02-25T03:14:41.533Z,74.13
2023-02-25T03:17:17.825Z,74.24
2023-02-25T03:20:06.520Z,74.01
2023-02-25T03:22:42.177Z,74.02
2023-02-25T03:25:23.447Z,74.07
2023-02-25T03:27:58.654Z,73.94
2023-02-25T03:30:38.865Z,73.81
2023-02-25T03:33:20.026Z,73.13
2023-02-25T03:35:58.078Z,73.97
2023-02-25T03:38:34.279Z,73.61
2023-02-25T03:41:08.307Z,73.87
2023-02-25T03:43:47.403Z,73.70
2023-02-25T03:46:22.920Z,73.78
2023-02-25T03:48:59.864Z,73.65
2023-02-25T03:51:36.879Z,74.24
2023-02-25T03:54:09.800Z,73.77
2023-02-25T03:56:43.783Z,73.60
2023-02-25T03:59:18.084Z,73.71
2023-02-25T04:01:54.415Z,72.98
2023-02-25T04:04:27.597Z,73.91
2023-02-25T04:07:01.784Z,73.63
2023-02-25T04:09:35.121Z,73.77
2023-02-25T04:12:08.401Z,73.38
2023-02-25T04:14:41.182Z,73.86
2023-02-25T04:17:14.637Z,74.05
2023-02-25T04:19:47.333Z,73.56
2023-02-25T04:22:21.496Z,73.64
2023-02-25T04:24:54.952Z,73.81
2023-02-25T04:27:28.610Z,74.08
2023-02-25T04:30:01.491Z,73.57
2023-02-25T04:32:34.268Z,73.76
2023-02-25T04:35:11.730Z,74.51
2023-02-25T04:37:48.108Z,74.08
2023-02-25T04:40:22.846Z,74.24
2023-02-25T04:42:55.867Z,74.01
2023-02-25T04:45:28.959Z,73.63
2023-02-25T04:48:01.829Z,73.56
2023-02-25T04:50:35.172Z,73.71
2023-02-25T04:53:09.919Z,73.70
2023-02-25T04:55:42.637Z,72.91
2023-02-25T04:58:15.758Z,73.18
2023-02-25T05:00:49.160Z,73.36
2023-02-25T05:03:21.963Z,73.72
2023-02-25T05:05:54.734Z,72.89
2023-02-25T05:08:29.170Z,73.69
2023-02-25T05:11:02.730Z,74.06
2023-02-25T05:13:35.537Z,73.51
2023-02-25T05:16:11.516Z,73.92
2023-02-25T05:18:46.145Z,73.75
2023-02-25T05:21:21.094Z,73.62
2023-02-25T05:23:55.320Z,73.78
2023-02-25T05:26:28.056Z,73.77
2023-02-25T05:29:00.956Z,73.84
2023-02-25T05:31:33.807Z,73.62
2023-02-25T05:34:07.460Z,73.33
2023-02-25T05:36:41.296Z,73.26
2023-02-25T05:39:17.892Z,73.64
2023-02-25T05:41:51.813Z,73.29
2023-02-25T05:44:25.044Z,73.75
2023-02-25T05:46:57.917Z,73.73
2023-02-25T05:49:30.831Z,73.09
2023-02-25T05:52:03.355Z,73.40
2023-02-25T05:54:39.012Z,73.62
2023-02-25T05:57:14.095Z,73.43
2023-02-25T05:59:48.125Z,73.34
2023-02-25T06:02:21.033Z,73.36
2023-02-25T06:04:53.916Z,73.75
2023-02-25T06:07:27.156Z,74.13
2023-02-25T06:10:01.882Z,73.51
2023-02-25T06:12:38.186Z,74.05
2023-02-25T06:15:12.002Z,73.67
2023-02-25T06:17:45.122Z,73.74
2023-02-25T06:20:18.742Z,73.78
2023-02-25T06:22:51.697Z,73.53
2023-02-25T06:25:26.587Z,73.50
2023-02-25T06:28:00.309Z,73.40
2023-02-25T06:30:33.441Z,73.21
2023-02-25T06:33:06.283Z,73.65
2023-02-25T06:35:39.049Z,74.16
2023-02-25T06:38:11.834Z,73.70
2023-02-25T06:40:50.002Z,73.73
2023-02-25T06:43:23.171Z,73.82
2023-02-25T06:45:55.981Z,73.49
2023-02-25T06:48:28.866Z,73.75
2023-02-25T06:51:02.974Z,73.87
2023-02-25T06:53:35.999Z,73.95
2023-02-25T06:56:15.903Z,73.90
2023-02-25T06:58:49.113Z,74.22
2023-02-25T07:01:22.852Z,73.98
2023-02-25T07:03:58.169Z,74.11
2023-02-25T07:06:31.044Z,74.19
2023-02-25T07:09:03.774Z,73.71
2023-02-25T07:11:38.723Z,73.88
2023-02-25T07:14:14.203Z,72.97
2023-02-25T07:16:47.386Z,73.56
2023-02-25T07:19:20.083Z,73.34
2023-02-25T07:21:52.829Z,73.72
2023-02-25T07:24:27.083Z,73.95
2023-02-25T07:27:04.576Z,73.80
2023-02-25T07:29:37.333Z,74.12
2023-02-25T07:32:10.213Z,74.01
2023-02-25T07:34:43.178Z,74.28
2023-02-25T07:37:16.015Z,73.56
2023-02-25T07:39:48.972Z,73.96
2023-02-25T07:42:23.288Z,73.86
2023-02-25T07:44:56.121Z,74.14
2023-02-25T07:47:29.062Z,74.34
2023-02-25T07:50:06.758Z,74.24
2023-02-25T07:52:39.818Z,73.84
2023-02-25T07:55:13.255Z,73.84
2023-02-25T07:57:48.954Z,74.29
2023-02-25T08:00:22.336Z,74.13
2023-02-25T08:02:55.441Z,73.50
2023-02-25T08:05:28.460Z,73.47
2023-02-25T08:08:01.796Z,73.78
2023-02-25T08:10:34.981Z,72.91
2023-02-25T08:13:09.012Z,73.22
2023-02-25T08:15:42.635Z,73.45
2023-02-25T08:18:18.006Z,73.62
2023-02-25T08:20:55.916Z,73.44
2023-02-25T08:23:28.697Z,73.61
2023-02-25T08:26:02.047Z,74.10
2023-02-25T08:28:37.388Z,73.70
2023-02-25T08:31:12.130Z,73.57
2023-02-25T08:33:49.729Z,73.72
2023-02-25T08:36:26.576Z,73.89
2023-02-25T08:39:00.725Z,74.05
2023-02-25T08:41:33.404Z,73.79
2023-02-25T08:44:07.560Z,73.91
2023-02-25T08:46:41.790Z,73.15
2023-02-25T08:49:15.190Z,72.26
2023-02-25T08:51:50.824Z,71.95
2023-02-25T08:54:24.069Z,72.06
2023-02-25T08:56:57.242Z,72.33
2023-02-25T08:59:36.056Z,72.30
2023-02-25T09:02:15.193Z,72.69
2023-02-25T09:04:47.977Z,71.53
2023-02-25T09:07:22.041Z,71.97
2023-02-25T09:09:55.121Z,72.03
2023-02-25T09:12:27.982Z,72.42
2023-02-25T09:15:02.295Z,72.65
2023-02-25T09:17:35.090Z,72.18
2023-02-25T09:20:11.301Z,71.57
2023-02-25T09:22:44.283Z,72.15
2023-02-25T09:25:17.074Z,71.74
2023-02-25T09:27:49.803Z,71.18
2023-02-25T09:30:24.135Z,70.42
2023-02-25T09:32:56.970Z,71.47
2023-02-25T09:35:29.834Z,71.09
2023-02-25T09:38:02.498Z,70.71
2023-02-25T09:40:35.429Z,71.88
2023-02-25T09:43:16.061Z,71.61
2023-02-25T09:45:53.866Z,70.85
2023-02-25T09:48:30.568Z,71.50
2023-02-25T09:51:19.504Z,72.48
2023-02-25T09:53:56.819Z,71.25
2023-02-25T09:56:31.438Z,70.31
2023-02-25T09:59:11.585Z,71.61
2023-02-25T10:01:52.772Z,72.80
2023-02-25T10:04:33.145Z,71.53
2023-02-25T10:07:15.091Z,72.54
2023-02-25T10:09:54.322Z,72.49
2023-02-25T10:12:32.889Z,71.77
2023-02-25T10:15:23.222Z,71.37
2023-02-25T10:18:12.431Z,72.26
2023-02-25T10:20:53.000Z,72.41
2023-02-25T10:23:38.068Z,72.12
2023-02-25T10:26:17.861Z,72.06
2023-02-25T10:28:55.121Z,72.86
2023-02-25T10:31:28.452Z,72.16
2023-02-25T10:34:20.919Z,72.41
2023-02-25T10:36:56.442Z,72.13
2023-02-25T10:39:31.224Z,71.97
2023-02-25T10:42:04.360Z,72.50
2023-02-25T10:44:37.502Z,72.72
2023-02-25T10:47:15.092Z,73.06
2023-02-25T10:50:15.237Z,73.10
2023-02-25T10:53:00.660Z,72.93
2023-02-25T10:55:51.748Z,71.77
2023-02-25T10:58:29.416Z,72.07
2023-02-25T11:01:06.976Z,71.03
2023-02-25T11:03:46.446Z,71.79
2023-02-25T11:06:25.266Z,71.44
2023-02-25T11:09:00.204Z,70.16
2023-02-25T11:11:35.925Z,70.70
2023-02-25T11:14:16.009Z,69.62
2023-02-25T11:16:48.839Z,69.73
2023-02-25T11:19:26.770Z,68.41
2023-02-25T11:22:07.702Z,69.01
2023-02-25T11:24:42.912Z,68.57
2023-02-25T11:27:29.400Z,69.93
2023-02-25T11:30:07.464Z,69.09
2023-02-25T11:32:44.324Z,68.22
2023-02-25T11:35:20.741Z,69.62
2023-02-25T11:37:55.516Z,69.07
2023-02-25T11:40:31.121Z,69.51
2023-02-25T11:43:17.050Z,68.96
2023-02-25T11:45:56.526Z,68.92
2023-02-25T11:48:34.822Z,70.69
2023-02-25T11:51:16.276Z,68.82
2023-02-25T11:54:02.980Z,69.90
2023-02-25T11:56:39.416Z,70.77
2023-02-25T11:59:30.211Z,71.06
2023-02-25T12:02:21.648Z,70.00
2023-02-25T12:05:35.223Z,69.90
2023-02-25T12:08:21.967Z,70.43
2023-02-25T12:11:27.346Z,71.84
2023-02-25T12:14:24.565Z,71.14
2023-02-25T12:17:21.422Z,71.02
2023-02-25T12:20:30.982Z,72.63
2023-02-25T12:23:45.893Z,71.71
2023-02-25T12:26:33.284Z,71.68
2023-02-25T12:29:23.715Z,72.25
2023-02-25T12:32:18.689Z,72.10
2023-02-25T12:35:16.285Z,72.21
2023-02-25T12:38:17.041Z,72.29
2023-02-25T12:41:09.874Z,72.25
2023-02-25T12:43:50.744Z,72.44
2023-02-25T12:46:47.376Z,71.48
2023-02-25T12:49:49.181Z,70.93
2023-02-25T12:52:29.543Z,71.60
2023-02-25T12:55:22.839Z,71.33
2023-02-25T12:58:05.640Z,71.26
2023-02-25T13:01:02.919Z,71.13
2023-02-25T13:03:54.630Z,72.05
2023-02-25T13:06:56.846Z,70.91
2023-02-25T13:09:47.788Z,71.80
2023-02-25T13:12:44.641Z,71.01
2023-02-25T13:15:21.541Z,71.71
2023-02-25T13:18:13.260Z,69.99
2023-02-25T13:21:14.640Z,72.29
2023-02-25T13:24:11.723Z,71.82
2023-02-25T13:27:04.933Z,71.55
2023-02-25T13:29:52.499Z,71.26
2023-02-25T13:32:33.571Z,71.57
2023-02-25T13:35:29.150Z,71.42
2023-02-25T13:38:18.321Z,70.12
2023-02-25T13:41:01.917Z,71.76
2023-02-25T13:43:52.082Z,71.07
2023-02-25T13:46:47.593Z,71.88
2023-02-25T13:49:48.487Z,70.93
2023-02-25T13:52:55.355Z,70.82
2023-02-25T13:55:47.833Z,71.00
2023-02-25T13:58:43.866Z,70.91
2023-02-25T14:01:40.188Z,70.02
2023-02-25T14:04:40.724Z,70.59
2023-02-25T14:07:22.968Z,70.53
2023-02-25T14:10:13.395Z,70.83
2023-02-25T14:13:02.682Z,69.64
2023-02-25T14:15:48.265Z,69.56
2023-02-25T14:18:33.222Z,69.35
2023-02-25T14:21:40.009Z,69.81
2023-02-25T14:24:20.138Z,69.33
2023-02-25T14:27:03.382Z,70.14
2023-02-25T14:29:42.331Z,69.69
2023-02-25T14:32:28.387Z,69.81
2023-02-25T14:35:18.811Z,68.95
2023-02-25T14:38:04.104Z,69.74
2023-02-25T14:40:46.383Z,69.27
2023-02-25T14:43:32.259Z,68.56
2023-02-25T14:46:16.497Z,69.47
2023-02-25T14:49:00.028Z,69.24
2023-02-25T14:51:49.388Z,68.35
2023-02-25T14:54:48.460Z,67.62
2023-02-25T14:57:51.335Z,68.82
2023-02-25T15:00:45.641Z,68.01
2023-02-25T15:03:38.964Z,68.89
2023-02-25T15:06:32.162Z,68.43
2023-02-25T15:09:23.687Z,68.27
2023-02-25T15:12:27.837Z,68.40
2023-02-25T15:15:21.199Z,68.33
2023-02-25T15:18:17.613Z,68.95
2023-02-25T15:20:52.370Z,68.46
2023-02-25T15:23:50.309Z,68.94
2023-02-25T15:26:26.686Z,68.13
2023-02-25T15:28:59.984Z,68.36
2023-02-25T15:31:34.508Z,66.19
2023-02-25T15:34:34.936Z,67.18
2023-02-25T15:37:20.269Z,66.64
2023-02-25T15:39:56.448Z,67.14
2023-02-25T15:42:52.954Z,67.00
2023-02-25T15:45:38.229Z,67.60
2023-02-25T15:48:31.969Z,67.40
2023-02-25T15:51:10.324Z,66.54
2023-02-25T15:53:48.317Z,66.08
2023-02-25T15:56:56.926Z,67.88
2023-02-25T15:59:45.349Z,66.58
2023-02-25T16:02:46.422Z,66.79
2023-02-25T16:05:28.122Z,67.07
2023-02-25T16:08:14.206Z,68.05
2023-02-25T16:10:53.908Z,67.65
2023-02-25T16:13:38.744Z,68.82
2023-02-25T16:16:14.097Z,66.72
2023-02-25T16:18:50.434Z,67.96
2023-02-25T16:21:27.343Z,69.13
2023-02-25T16:24:01.724Z,68.80
2023-02-25T16:26:45.128Z,70.67
2023-02-25T16:29:35.117Z,67.92
2023-02-25T16:32:17.730Z,67.70
2023-02-25T16:34:56.229Z,66.43
2023-02-25T16:37:37.250Z,66.45
2023-02-25T16:40:15.889Z,67.10
2023-02-25T16:42:50.478Z,68.48
2023-02-25T16:45:28.228Z,67.72
2023-02-25T16:48:05.475Z,67.73
2023-02-25T16:50:38.378Z,69.67
2023-02-25T16:53:18.794Z,68.22
2023-02-25T16:55:58.239Z,67.77
2023-02-25T16:58:32.469Z,67.39
2023-02-25T17:01:07.608Z,68.15
2023-02-25T17:03:47.447Z,67.44
2023-02-25T17:06:21.311Z,67.14
2023-02-25T17:08:54.160Z,66.12
2023-02-25T17:11:27.648Z,64.92
2023-02-25T17:14:05.478Z,67.07
2023-02-25T17:16:43.543Z,66.83
2023-02-25T17:19:20.689Z,67.08
2023-02-25T17:21:56.930Z,68.51
2023-02-25T17:24:33.152Z,67.73
2023-02-25T17:27:12.350Z,67.68
2023-02-25T17:29:46.675Z,68.76
2023-02-25T17:32:22.577Z,68.49
2023-02-25T17:34:58.880Z,68.12
2023-02-25T17:37:33.021Z,69.11
2023-02-25T17:40:10.465Z,67.73
2023-02-25T17:42:44.235Z,66.71
2023-02-25T17:45:44.537Z,68.09
2023-02-25T17:48:19.743Z,67.32
2023-02-25T17:50:55.678Z,67.24
2023-02-25T17:53:40.462Z,68.12
2023-02-25T17:56:25.014Z,67.68
2023-02-25T17:59:02.633Z,67.84
2023-02-25T18:01:53.976Z,67.69
2023-02-25T18:04:35.131Z,67.76
2023-02-25T18:07:21.702Z,67.41
2023-02-25T18:09:54.700Z,67.83
2023-02-25T18:12:29.014Z,67.75
2023-02-25T18:15:04.150Z,67.75
2023-02-25T18:17:40.777Z,68.47
2023-02-25T18:20:29.298Z,68.31
2023-02-25T18:23:03.550Z,68.11
2023-02-25T18:25:38.447Z,67.79
2023-02-25T18:28:16.741Z,68.02
2023-02-25T18:30:51.286Z,68.45
2023-02-25T18:33:25.536Z,68.10
2023-02-25T18:35:59.347Z,68.14
2023-02-25T18:38:32.869Z,68.29
2023-02-25T18:41:07.237Z,68.56
2023-02-25T18:43:42.063Z,68.43
2023-02-25T18:46:15.707Z,69.38
2023-02-25T18:48:50.053Z,68.90
2023-02-25T18:51:23.799Z,68.71
2023-02-25T18:53:56.821Z,68.83
2023-02-25T18:56:29.531Z,68.92
2023-02-25T18:59:02.270Z,69.51
2023-02-25T19:01:35.594Z,69.02
2023-02-25T19:04:15.981Z,69.17
2023-02-25T19:06:49.867Z,69.32
2023-02-25T19:09:24.947Z,69.13
2023-02-25T19:11:57.776Z,69.21
2023-02-25T19:14:30.595Z,69.33
2023-02-25T19:17:03.813Z,68.90
2023-02-25T19:19:38.366Z,69.02
2023-02-25T19:22:12.781Z,68.77
2023-02-25T19:24:48.291Z,69.18
2023-02-25T19:27:23.397Z,69.43
2023-02-25T19:29:59.339Z,69.27
2023-02-25T19:32:32.475Z,69.44
2023-02-25T19:35:10.453Z,69.48
2023-02-25T19:37:43.928Z,69.06
2023-02-25T19:40:17.549Z,69.25
2023-02-25T19:42:50.617Z,69.34
2023-02-25T19:45:25.373Z,69.25
2023-02-25T19:47:58.552Z,69.80
2023-02-25T19:50:34.912Z,69.82
2023-02-25T19:53:07.874Z,69.87
2023-02-25T19:55:43.274Z,69.39
2023-02-25T19:58:16.593Z,69.23
2023-02-25T20:00:49.933Z,69.68
2023-02-25T20:03:23.134Z,69.34
2023-02-25T20:05:57.670Z,69.54
2023-02-25T20:08:30.936Z,69.59
2023-02-25T20:11:04.291Z,69.64
2023-02-25T20:13:38.397Z,69.25
2023-02-25T20:16:11.612Z,69.55
2023-02-25T20:18:44.520Z,69.26
2023-02-25T20:21:19.115Z,69.73
2023-02-25T20:23:52.410Z,69.85
2023-02-25T20:26:25.952Z,69.79
2023-02-25T20:28:58.926Z,69.61
2023-02-25T20:31:31.998Z,69.68
2023-02-25T20:34:05.871Z,69.71
2023-02-25T20:36:45.019Z,69.07
2023-02-25T20:39:34.477Z,69.10
2023-02-25T20:42:11.845Z,69.45
2023-02-25T20:44:45.937Z,69.98
2023-02-25T20:47:21.896Z,69.72
2023-02-25T20:49:56.479Z,69.47
2023-02-25T20:52:30.966Z,69.30
2023-02-25T20:55:06.624Z,69.88
2023-02-25T20:57:39.857Z,69.60
2023-02-25T21:00:16.440Z,69.22
2023-02-25T21:02:49.588Z,69.77
2023-02-25T21:05:22.454Z,69.44
2023-02-25T21:07:57.967Z,69.78
2023-02-25T21:10:31.406Z,69.85
2023-02-25T21:13:04.742Z,69.53
2023-02-25T21:15:37.987Z,69.84
2023-02-25T21:18:11.682Z,68.96
2023-02-25T21:20:44.582Z,69.13
2023-02-25T21:23:19.130Z,69.60
2023-02-25T21:25:52.125Z,69.74
2023-02-25T21:28:25.581Z,69.35
2023-02-25T21:31:01.789Z,69.68
2023-02-25T21:33:35.138Z,69.67
2023-02-25T21:36:12.414Z,69.61
2023-02-25T21:38:46.845Z,69.37
2023-02-25T21:41:20.274Z,69.96
2023-02-25T21:43:54.055Z,68.80
2023-02-25T21:46:28.988Z,69.27
2023-02-25T21:49:02.345Z,69.44
2023-02-25T21:51:44.702Z,69.35
2023-02-25T21:54:19.648Z,69.43
2023-02-25T21:56:53.087Z,69.20
2023-02-25T21:59:27.876Z,69.38
2023-02-25T22:02:01.469Z,69.35
2023-02-25T22:04:34.667Z,70.04
2023-02-25T22:07:07.998Z,69.84
2023-02-25T22:09:43.509Z,69.76
2023-02-25T22:12:36.106Z,69.66
2023-02-25T22:15:19.531Z,69.94
2023-02-25T22:17:53.211Z,69.40
2023-02-25T22:20:26.963Z,69.65
2023-02-25T22:23:00.435Z,69.96
2023-02-25T22:25:34.863Z,70.03
2023-02-25T22:28:08.134Z,70.18
2023-02-25T22:30:41.961Z,69.88
2023-02-25T22:33:18.506Z,70.05
2023-02-25T22:35:57.708Z,70.05
2023-02-25T22:38:32.105Z,69.91
2023-02-25T22:41:14.618Z,70.13
2023-02-25T22:43:50.619Z,70.15
2023-02-25T22:46:26.053Z,69.91
2023-02-25T22:48:59.800Z,69.78
2023-02-25T22:51:36.026Z,70.21
2023-02-25T22:54:09.553Z,70.25
2023-02-25T22:56:45.161Z,70.43
2023-02-25T22:59:18.912Z,70.14
2023-02-25T23:01:53.201Z,70.39
2023-02-25T23:04:28.031Z,70.41
2023-02-25T23:07:01.740Z,70.16
2023-02-25T23:09:35.220Z,70.49
2023-02-25T23:12:10.318Z,70.00
2023-02-25T23:14:43.678Z,69.91
2023-02-25T23:17:19.943Z,70.47
2023-02-25T23:19:58.820Z,70.75
2023-02-25T23:22:34.247Z,70.72
2023-02-25T23:25:10.322Z,70.23
2023-02-25T23:27:46.080Z,70.23
2023-02-25T23:30:19.908Z,70.85
2023-02-25T23:32:53.347Z,70.58
2023-02-25T23:35:27.429Z,70.66
2023-02-25T23:38:00.661Z,70.67
2023-02-25T23:40:33.820Z,70.79
2023-02-25T23:43:10.919Z,70.51
2023-02-25T23:45:46.855Z,70.54
2023-02-25T23:48:21.122Z,71.26
2023-02-25T23:50:54.496Z,70.65
2023-02-25T23:53:28.163Z,70.47
2023-02-25T23:56:06.529Z,70.33
2023-02-25T23:58:41.810Z,70.14
